sensor_id;sensor_type;location;lat;lon;timestamp;P1;durP1;ratioP1;P2;durP2;ratioP2
39242;SDS011;29823;47.404;8.566;2024-03-02T00:02:10;37.63;;;18.08;;
39242;SDS011;29823;47.404;8.566;2024-03-02T00:04:38;55.13;;;23.20;;
39242;SDS011;29823;47.404;8.566;2024-03-02T00:07:06;41.80;;;19.08;;
39242;SDS011;29823;47.404;8.566;2024-03-02T00:09:33;40.10;;;18.85;;
39242;SDS011;29823;47.404;8.566;2024-03-02T00:12:01;37.25;;;17.90;;
39242;SDS011;29823;47.404;8.566;2024-03-02T00:14:31;33.47;;;16.05;;
39242;SDS011;29823;47.404;8.566;2024-03-02T00:16:59;30.30;;;16.05;;
39242;SDS011;29823;47.404;8.566;2024-03-02T00:19:28;26.13;;;15.05;;
39242;SDS011;29823;47.404;8.566;2024-03-02T00:21:59;30.90;;;16.00;;
39242;SDS011;29823;47.404;8.566;2024-03-02T00:24:30;28.85;;;15.20;;
39242;SDS011;29823;47.404;8.566;2024-03-02T00:26:59;27.80;;;14.87;;
39242;SDS011;29823;47.404;8.566;2024-03-02T00:29:26;28.60;;;15.27;;
39242;SDS011;29823;47.404;8.566;2024-03-02T00:31:56;29.98;;;14.75;;
39242;SDS011;29823;47.404;8.566;2024-03-02T00:34:25;34.10;;;18.02;;
39242;SDS011;29823;47.404;8.566;2024-03-02T00:36:52;32.92;;;15.27;;
39242;SDS011;29823;47.404;8.566;2024-03-02T00:39:21;28.67;;;14.55;;
39242;SDS011;29823;47.404;8.566;2024-03-02T00:41:49;29.13;;;15.45;;
39242;SDS011;29823;47.404;8.566;2024-03-02T00:44:17;29.05;;;15.10;;
39242;SDS011;29823;47.404;8.566;2024-03-02T00:46:47;32.97;;;16.33;;
39242;SDS011;29823;47.404;8.566;2024-03-02T00:49:18;33.22;;;15.63;;
39242;SDS011;29823;47.404;8.566;2024-03-02T00:51:48;30.45;;;15.48;;
39242;SDS011;29823;47.404;8.566;2024-03-02T00:54:19;35.00;;;16.40;;
39242;SDS011;29823;47.404;8.566;2024-03-02T00:56:50;37.75;;;17.52;;
39242;SDS011;29823;47.404;8.566;2024-03-02T00:59:17;34.50;;;17.30;;
39242;SDS011;29823;47.404;8.566;2024-03-02T01:01:45;33.72;;;17.10;;
39242;SDS011;29823;47.404;8.566;2024-03-02T01:04:13;33.45;;;15.93;;
39242;SDS011;29823;47.404;8.566;2024-03-02T01:06:42;33.65;;;15.40;;
39242;SDS011;29823;47.404;8.566;2024-03-02T01:09:10;34.60;;;17.65;;
39242;SDS011;29823;47.404;8.566;2024-03-02T01:11:39;32.50;;;16.08;;
39242;SDS011;29823;47.404;8.566;2024-03-02T01:14:07;36.47;;;17.95;;
39242;SDS011;29823;47.404;8.566;2024-03-02T01:16:34;34.35;;;16.92;;
39242;SDS011;29823;47.404;8.566;2024-03-02T01:19:02;33.47;;;15.38;;
39242;SDS011;29823;47.404;8.566;2024-03-02T01:21:30;35.65;;;15.93;;
39242;SDS011;29823;47.404;8.566;2024-03-02T01:23:59;35.13;;;16.30;;
39242;SDS011;29823;47.404;8.566;2024-03-02T01:26:27;33.13;;;16.13;;
39242;SDS011;29823;47.404;8.566;2024-03-02T01:28:55;30.83;;;15.65;;
39242;SDS011;29823;47.404;8.566;2024-03-02T01:31:23;31.40;;;15.50;;
39242;SDS011;29823;47.404;8.566;2024-03-02T01:33:50;29.20;;;14.88;;
39242;SDS011;29823;47.404;8.566;2024-03-02T01:36:18;31.02;;;15.15;;
39242;SDS011;29823;47.404;8.566;2024-03-02T01:38:46;35.80;;;16.48;;
39242;SDS011;29823;47.404;8.566;2024-03-02T01:41:15;32.47;;;16.45;;
39242;SDS011;29823;47.404;8.566;2024-03-02T01:43:42;32.25;;;15.18;;
39242;SDS011;29823;47.404;8.566;2024-03-02T01:46:10;36.08;;;17.20;;
39242;SDS011;29823;47.404;8.566;2024-03-02T01:48:38;40.17;;;16.15;;
39242;SDS011;29823;47.404;8.566;2024-03-02T01:51:06;33.92;;;15.63;;
39242;SDS011;29823;47.404;8.566;2024-03-02T01:53:33;36.53;;;17.05;;
39242;SDS011;29823;47.404;8.566;2024-03-02T01:56:04;36.28;;;15.95;;
39242;SDS011;29823;47.404;8.566;2024-03-02T01:58:33;36.55;;;17.80;;
39242;SDS011;29823;47.404;8.566;2024-03-02T02:01:01;35.17;;;16.60;;
39242;SDS011;29823;47.404;8.566;2024-03-02T02:03:32;35.38;;;16.42;;
39242;SDS011;29823;47.404;8.566;2024-03-02T02:05:59;37.33;;;16.10;;
39242;SDS011;29823;47.404;8.566;2024-03-02T02:08:27;32.55;;;15.90;;
39242;SDS011;29823;47.404;8.566;2024-03-02T02:10:55;29.40;;;14.07;;
39242;SDS011;29823;47.404;8.566;2024-03-02T02:13:22;35.50;;;15.13;;
39242;SDS011;29823;47.404;8.566;2024-03-02T02:15:51;34.88;;;14.98;;
39242;SDS011;29823;47.404;8.566;2024-03-02T02:18:20;29.63;;;13.95;;
39242;SDS011;29823;47.404;8.566;2024-03-02T02:20:47;32.65;;;13.38;;
39242;SDS011;29823;47.404;8.566;2024-03-02T02:23:16;31.15;;;13.40;;
39242;SDS011;29823;47.404;8.566;2024-03-02T02:25:44;41.42;;;16.67;;
39242;SDS011;29823;47.404;8.566;2024-03-02T02:28:12;35.08;;;15.23;;
39242;SDS011;29823;47.404;8.566;2024-03-02T02:30:39;37.58;;;15.18;;
39242;SDS011;29823;47.404;8.566;2024-03-02T02:33:07;34.75;;;16.00;;
39242;SDS011;29823;47.404;8.566;2024-03-02T02:35:35;43.03;;;17.45;;
39242;SDS011;29823;47.404;8.566;2024-03-02T02:38:03;39.10;;;16.85;;
39242;SDS011;29823;47.404;8.566;2024-03-02T02:40:32;50.80;;;20.83;;
39242;SDS011;29823;47.404;8.566;2024-03-02T02:43:00;54.15;;;22.17;;
39242;SDS011;29823;47.404;8.566;2024-03-02T02:45:27;59.35;;;22.58;;
39242;SDS011;29823;47.404;8.566;2024-03-02T02:47:55;56.92;;;22.85;;
39242;SDS011;29823;47.404;8.566;2024-03-02T02:50:23;55.92;;;21.45;;
39242;SDS011;29823;47.404;8.566;2024-03-02T02:52:50;60.78;;;22.15;;
39242;SDS011;29823;47.404;8.566;2024-03-02T02:55:18;56.65;;;22.77;;
39242;SDS011;29823;47.404;8.566;2024-03-02T02:57:47;50.65;;;20.77;;
39242;SDS011;29823;47.404;8.566;2024-03-02T03:00:15;40.30;;;19.08;;
39242;SDS011;29823;47.404;8.566;2024-03-02T03:02:46;46.42;;;19.65;;
39242;SDS011;29823;47.404;8.566;2024-03-02T03:05:16;34.17;;;15.07;;
39242;SDS011;29823;47.404;8.566;2024-03-02T03:07:44;30.52;;;13.65;;
39242;SDS011;29823;47.404;8.566;2024-03-02T03:10:12;41.47;;;17.80;;
39242;SDS011;29823;47.404;8.566;2024-03-02T03:12:41;32.38;;;13.40;;
39242;SDS011;29823;47.404;8.566;2024-03-02T03:15:12;26.42;;;12.27;;
39242;SDS011;29823;47.404;8.566;2024-03-02T03:17:40;22.25;;;10.80;;
39242;SDS011;29823;47.404;8.566;2024-03-02T03:20:08;17.48;;;9.27;;
39242;SDS011;29823;47.404;8.566;2024-03-02T03:22:39;18.75;;;8.95;;
39242;SDS011;29823;47.404;8.566;2024-03-02T03:25:09;22.08;;;9.93;;
39242;SDS011;29823;47.404;8.566;2024-03-02T03:27:36;20.08;;;9.57;;
39242;SDS011;29823;47.404;8.566;2024-03-02T03:30:05;20.73;;;9.10;;
39242;SDS011;29823;47.404;8.566;2024-03-02T03:32:35;18.67;;;8.95;;
39242;SDS011;29823;47.404;8.566;2024-03-02T03:35:03;17.77;;;8.75;;
39242;SDS011;29823;47.404;8.566;2024-03-02T03:37:31;21.20;;;9.02;;
39242;SDS011;29823;47.404;8.566;2024-03-02T03:40:01;15.95;;;8.63;;
39242;SDS011;29823;47.404;8.566;2024-03-02T03:42:29;17.48;;;8.43;;
39242;SDS011;29823;47.404;8.566;2024-03-02T03:44:56;17.10;;;8.18;;
39242;SDS011;29823;47.404;8.566;2024-03-02T03:47:24;19.23;;;8.90;;
39242;SDS011;29823;47.404;8.566;2024-03-02T03:49:53;17.65;;;8.70;;
39242;SDS011;29823;47.404;8.566;2024-03-02T03:52:21;18.30;;;8.90;;
39242;SDS011;29823;47.404;8.566;2024-03-02T03:54:49;21.33;;;9.40;;
39242;SDS011;29823;47.404;8.566;2024-03-02T03:57:16;26.15;;;11.07;;
39242;SDS011;29823;47.404;8.566;2024-03-02T03:59:44;24.52;;;10.45;;
39242;SDS011;29823;47.404;8.566;2024-03-02T04:02:12;19.77;;;10.73;;
39242;SDS011;29823;47.404;8.566;2024-03-02T04:04:40;21.98;;;9.90;;
39242;SDS011;29823;47.404;8.566;2024-03-02T04:07:10;18.23;;;8.75;;
39242;SDS011;29823;47.404;8.566;2024-03-02T04:09:38;27.08;;;10.85;;
39242;SDS011;29823;47.404;8.566;2024-03-02T04:12:05;26.08;;;11.05;;
39242;SDS011;29823;47.404;8.566;2024-03-02T04:14:33;21.95;;;10.73;;
39242;SDS011;29823;47.404;8.566;2024-03-02T04:17:01;23.25;;;11.10;;
39242;SDS011;29823;47.404;8.566;2024-03-02T04:19:28;19.40;;;10.27;;
39242;SDS011;29823;47.404;8.566;2024-03-02T04:21:56;22.27;;;10.82;;
39242;SDS011;29823;47.404;8.566;2024-03-02T04:24:29;25.88;;;10.63;;
39242;SDS011;29823;47.404;8.566;2024-03-02T04:26:57;23.70;;;11.73;;
39242;SDS011;29823;47.404;8.566;2024-03-02T04:29:25;26.17;;;12.25;;
39242;SDS011;29823;47.404;8.566;2024-03-02T04:31:52;28.65;;;12.63;;
39242;SDS011;29823;47.404;8.566;2024-03-02T04:34:20;27.55;;;12.52;;
39242;SDS011;29823;47.404;8.566;2024-03-02T04:36:48;23.92;;;11.60;;
39242;SDS011;29823;47.404;8.566;2024-03-02T04:39:16;24.33;;;10.88;;
39242;SDS011;29823;47.404;8.566;2024-03-02T04:41:45;21.88;;;10.32;;
39242;SDS011;29823;47.404;8.566;2024-03-02T04:44:13;19.17;;;8.43;;
39242;SDS011;29823;47.404;8.566;2024-03-02T04:46:40;21.95;;;8.90;;
39242;SDS011;29823;47.404;8.566;2024-03-02T04:49:08;20.20;;;8.43;;
39242;SDS011;29823;47.404;8.566;2024-03-02T04:51:36;17.98;;;7.63;;
39242;SDS011;29823;47.404;8.566;2024-03-02T04:54:04;22.25;;;9.52;;
39242;SDS011;29823;47.404;8.566;2024-03-02T04:56:31;21.40;;;10.05;;
39242;SDS011;29823;47.404;8.566;2024-03-02T04:59:12;27.77;;;10.27;;
39242;SDS011;29823;47.404;8.566;2024-03-02T05:01:40;26.55;;;10.75;;
39242;SDS011;29823;47.404;8.566;2024-03-02T05:04:08;25.42;;;11.75;;
39242;SDS011;29823;47.404;8.566;2024-03-02T05:06:38;32.03;;;13.35;;
39242;SDS011;29823;47.404;8.566;2024-03-02T05:09:06;38.72;;;14.70;;
39242;SDS011;29823;47.404;8.566;2024-03-02T05:11:34;29.15;;;13.15;;
39242;SDS011;29823;47.404;8.566;2024-03-02T05:14:20;33.03;;;14.20;;
39242;SDS011;29823;47.404;8.566;2024-03-02T05:16:48;37.15;;;14.45;;
39242;SDS011;29823;47.404;8.566;2024-03-02T05:19:16;35.63;;;14.60;;
39242;SDS011;29823;47.404;8.566;2024-03-02T05:21:43;44.85;;;15.60;;
39242;SDS011;29823;47.404;8.566;2024-03-02T05:24:11;40.13;;;15.25;;
39242;SDS011;29823;47.404;8.566;2024-03-02T05:26:39;52.05;;;16.50;;
39242;SDS011;29823;47.404;8.566;2024-03-02T05:29:06;34.90;;;15.07;;
39242;SDS011;29823;47.404;8.566;2024-03-02T05:31:35;36.70;;;15.52;;
39242;SDS011;29823;47.404;8.566;2024-03-02T05:34:03;42.88;;;14.55;;
39242;SDS011;29823;47.404;8.566;2024-03-02T05:36:31;43.08;;;15.32;;
39242;SDS011;29823;47.404;8.566;2024-03-02T05:38:59;41.42;;;15.45;;
39242;SDS011;29823;47.404;8.566;2024-03-02T05:41:27;47.88;;;14.98;;
39242;SDS011;29823;47.404;8.566;2024-03-02T05:43:55;29.33;;;12.57;;
39242;SDS011;29823;47.404;8.566;2024-03-02T05:46:23;39.80;;;13.80;;
39242;SDS011;29823;47.404;8.566;2024-03-02T05:48:52;50.08;;;14.95;;
39242;SDS011;29823;47.404;8.566;2024-03-02T05:51:20;79.55;;;18.98;;
39242;SDS011;29823;47.404;8.566;2024-03-02T05:53:47;57.28;;;16.75;;
39242;SDS011;29823;47.404;8.566;2024-03-02T05:56:15;120.65;;;17.98;;
39242;SDS011;29823;47.404;8.566;2024-03-02T05:58:43;83.60;;;16.42;;
39242;SDS011;29823;47.404;8.566;2024-03-02T06:01:24;164.60;;;18.35;;
39242;SDS011;29823;47.404;8.566;2024-03-02T06:03:56;180.90;;;20.30;;
39242;SDS011;29823;47.404;8.566;2024-03-02T06:06:25;103.03;;;16.63;;
39242;SDS011;29823;47.404;8.566;2024-03-02T06:08:53;133.68;;;16.00;;
39242;SDS011;29823;47.404;8.566;2024-03-02T06:11:22;45.30;;;14.75;;
39242;SDS011;29823;47.404;8.566;2024-03-02T06:13:49;33.53;;;13.80;;
39242;SDS011;29823;47.404;8.566;2024-03-02T06:16:17;38.85;;;13.90;;
39242;SDS011;29823;47.404;8.566;2024-03-02T06:18:45;59.58;;;13.73;;
39242;SDS011;29823;47.404;8.566;2024-03-02T06:21:14;40.55;;;13.55;;
39242;SDS011;29823;47.404;8.566;2024-03-02T06:23:42;89.07;;;15.68;;
39242;SDS011;29823;47.404;8.566;2024-03-02T06:26:09;95.50;;;15.15;;
39242;SDS011;29823;47.404;8.566;2024-03-02T06:28:37;136.88;;;17.20;;
39242;SDS011;29823;47.404;8.566;2024-03-02T06:31:05;113.53;;;14.80;;
39242;SDS011;29823;47.404;8.566;2024-03-02T06:33:32;55.33;;;17.98;;
39242;SDS011;29823;47.404;8.566;2024-03-02T06:36:01;37.90;;;13.73;;
39242;SDS011;29823;47.404;8.566;2024-03-02T06:38:31;83.43;;;14.20;;
39242;SDS011;29823;47.404;8.566;2024-03-02T06:40:59;75.60;;;13.60;;
39242;SDS011;29823;47.404;8.566;2024-03-02T06:43:26;146.18;;;13.52;;
39242;SDS011;29823;47.404;8.566;2024-03-02T06:45:54;86.43;;;12.88;;
39242;SDS011;29823;47.404;8.566;2024-03-02T06:48:22;55.65;;;12.13;;
39242;SDS011;29823;47.404;8.566;2024-03-02T06:50:51;63.55;;;12.07;;
39242;SDS011;29823;47.404;8.566;2024-03-02T06:53:19;42.85;;;10.88;;
39242;SDS011;29823;47.404;8.566;2024-03-02T06:55:49;34.80;;;9.73;;
39242;SDS011;29823;47.404;8.566;2024-03-02T06:58:16;77.75;;;11.75;;
39242;SDS011;29823;47.404;8.566;2024-03-02T07:00:44;39.92;;;10.43;;
39242;SDS011;29823;47.404;8.566;2024-03-02T07:03:12;42.65;;;10.38;;
39242;SDS011;29823;47.404;8.566;2024-03-02T07:05:40;44.33;;;10.05;;
39242;SDS011;29823;47.404;8.566;2024-03-02T07:08:08;97.50;;;13.93;;
39242;SDS011;29823;47.404;8.566;2024-03-02T07:10:36;276.60;;;19.13;;
39242;SDS011;29823;47.404;8.566;2024-03-02T07:13:07;64.68;;;15.25;;
39242;SDS011;29823;47.404;8.566;2024-03-02T07:15:34;87.93;;;15.30;;
39242;SDS011;29823;47.404;8.566;2024-03-02T07:18:16;151.13;;;18.90;;
39242;SDS011;29823;47.404;8.566;2024-03-02T07:20:44;63.60;;;15.30;;
39242;SDS011;29823;47.404;8.566;2024-03-02T07:23:12;195.68;;;16.38;;
39242;SDS011;29823;47.404;8.566;2024-03-02T07:25:39;376.70;;;19.52;;
39242;SDS011;29823;47.404;8.566;2024-03-02T07:28:11;295.15;;;18.25;;
39242;SDS011;29823;47.404;8.566;2024-03-02T07:30:39;52.83;;;14.90;;
39242;SDS011;29823;47.404;8.566;2024-03-02T07:33:07;149.23;;;15.65;;
39242;SDS011;29823;47.404;8.566;2024-03-02T07:35:35;253.48;;;20.42;;
39242;SDS011;29823;47.404;8.566;2024-03-02T07:38:02;108.38;;;16.88;;
39242;SDS011;29823;47.404;8.566;2024-03-02T07:40:33;130.13;;;16.42;;
39242;SDS011;29823;47.404;8.566;2024-03-02T07:43:01;444.00;;;22.48;;
39242;SDS011;29823;47.404;8.566;2024-03-02T07:45:30;305.02;;;19.80;;
39242;SDS011;29823;47.404;8.566;2024-03-02T07:47:58;297.05;;;19.13;;
39242;SDS011;29823;47.404;8.566;2024-03-02T07:50:26;224.07;;;16.67;;
39242;SDS011;29823;47.404;8.566;2024-03-02T07:52:54;193.23;;;14.05;;
39242;SDS011;29823;47.404;8.566;2024-03-02T07:55:21;218.73;;;16.02;;
39242;SDS011;29823;47.404;8.566;2024-03-02T07:57:50;209.60;;;15.73;;
39242;SDS011;29823;47.404;8.566;2024-03-02T08:00:18;71.13;;;13.88;;
39242;SDS011;29823;47.404;8.566;2024-03-02T08:02:47;44.55;;;13.30;;
39242;SDS011;29823;47.404;8.566;2024-03-02T08:05:15;60.88;;;15.38;;
39242;SDS011;29823;47.404;8.566;2024-03-02T08:07:43;50.20;;;17.15;;
39242;SDS011;29823;47.404;8.566;2024-03-02T08:10:11;71.97;;;17.85;;
39242;SDS011;29823;47.404;8.566;2024-03-02T08:12:39;60.20;;;18.15;;
39242;SDS011;29823;47.404;8.566;2024-03-02T08:15:07;119.63;;;17.80;;
39242;SDS011;29823;47.404;8.566;2024-03-02T08:17:34;144.85;;;19.67;;
39242;SDS011;29823;47.404;8.566;2024-03-02T08:20:05;171.18;;;21.60;;
39242;SDS011;29823;47.404;8.566;2024-03-02T08:22:34;88.75;;;20.70;;
39242;SDS011;29823;47.404;8.566;2024-03-02T08:25:02;61.00;;;19.20;;
39242;SDS011;29823;47.404;8.566;2024-03-02T08:27:30;101.55;;;21.90;;
39242;SDS011;29823;47.404;8.566;2024-03-02T08:29:58;90.13;;;19.35;;
39242;SDS011;29823;47.404;8.566;2024-03-02T08:32:26;89.55;;;21.73;;
39242;SDS011;29823;47.404;8.566;2024-03-02T08:34:54;116.00;;;21.83;;
39242;SDS011;29823;47.404;8.566;2024-03-02T08:37:23;40.88;;;19.85;;
39242;SDS011;29823;47.404;8.566;2024-03-02T08:39:50;45.55;;;21.40;;
39242;SDS011;29823;47.404;8.566;2024-03-02T08:42:18;58.05;;;24.50;;
39242;SDS011;29823;47.404;8.566;2024-03-02T08:44:46;62.30;;;25.25;;
39242;SDS011;29823;47.404;8.566;2024-03-02T08:47:14;65.32;;;23.90;;
39242;SDS011;29823;47.404;8.566;2024-03-02T08:49:41;77.78;;;24.02;;
39242;SDS011;29823;47.404;8.566;2024-03-02T08:52:09;53.80;;;22.30;;
39242;SDS011;29823;47.404;8.566;2024-03-02T08:54:38;41.97;;;19.40;;
39242;SDS011;29823;47.404;8.566;2024-03-02T08:57:06;38.83;;;19.23;;
39242;SDS011;29823;47.404;8.566;2024-03-02T08:59:34;50.47;;;19.52;;
39242;SDS011;29823;47.404;8.566;2024-03-02T09:02:02;32.05;;;17.17;;
39242;SDS011;29823;47.404;8.566;2024-03-02T09:04:29;35.40;;;18.08;;
39242;SDS011;29823;47.404;8.566;2024-03-02T09:07:00;34.17;;;16.77;;
39242;SDS011;29823;47.404;8.566;2024-03-02T09:09:28;36.60;;;17.40;;
39242;SDS011;29823;47.404;8.566;2024-03-02T09:11:59;31.67;;;16.75;;
39242;SDS011;29823;47.404;8.566;2024-03-02T09:14:27;36.10;;;17.20;;
39242;SDS011;29823;47.404;8.566;2024-03-02T09:16:55;29.58;;;16.55;;
39242;SDS011;29823;47.404;8.566;2024-03-02T09:19:23;28.48;;;15.82;;
39242;SDS011;29823;47.404;8.566;2024-03-02T09:21:50;24.65;;;14.82;;
39242;SDS011;29823;47.404;8.566;2024-03-02T09:24:18;26.98;;;14.45;;
39242;SDS011;29823;47.404;8.566;2024-03-02T09:26:45;42.17;;;21.25;;
39242;SDS011;29823;47.404;8.566;2024-03-02T09:29:14;27.20;;;14.40;;
39242;SDS011;29823;47.404;8.566;2024-03-02T09:31:42;19.23;;;12.05;;
39242;SDS011;29823;47.404;8.566;2024-03-02T09:34:10;20.15;;;10.93;;
39242;SDS011;29823;47.404;8.566;2024-03-02T09:36:37;23.65;;;11.75;;
39242;SDS011;29823;47.404;8.566;2024-03-02T09:39:07;16.67;;;11.02;;
39242;SDS011;29823;47.404;8.566;2024-03-02T09:41:36;16.95;;;10.63;;
39242;SDS011;29823;47.404;8.566;2024-03-02T09:44:04;24.42;;;12.30;;
39242;SDS011;29823;47.404;8.566;2024-03-02T09:46:33;22.77;;;10.27;;
39242;SDS011;29823;47.404;8.566;2024-03-02T09:49:02;13.50;;;9.35;;
39242;SDS011;29823;47.404;8.566;2024-03-02T09:51:31;13.52;;;8.50;;
39242;SDS011;29823;47.404;8.566;2024-03-02T09:53:58;13.07;;;8.77;;
39242;SDS011;29823;47.404;8.566;2024-03-02T09:56:42;15.15;;;9.48;;
39242;SDS011;29823;47.404;8.566;2024-03-02T09:59:11;19.27;;;9.90;;
39242;SDS011;29823;47.404;8.566;2024-03-02T10:01:53;22.92;;;10.65;;
39242;SDS011;29823;47.404;8.566;2024-03-02T10:04:22;16.25;;;11.00;;
39242;SDS011;29823;47.404;8.566;2024-03-02T10:06:50;20.27;;;10.18;;
39242;SDS011;29823;47.404;8.566;2024-03-02T10:09:26;17.98;;;10.00;;
39242;SDS011;29823;47.404;8.566;2024-03-02T10:12:01;18.60;;;10.88;;
39242;SDS011;29823;47.404;8.566;2024-03-02T10:14:30;15.60;;;9.75;;
39242;SDS011;29823;47.404;8.566;2024-03-02T10:17:02;17.85;;;10.30;;
39242;SDS011;29823;47.404;8.566;2024-03-02T10:19:33;13.80;;;9.32;;
39242;SDS011;29823;47.404;8.566;2024-03-02T10:22:02;15.77;;;9.65;;
39242;SDS011;29823;47.404;8.566;2024-03-02T10:24:34;14.85;;;9.63;;
39242;SDS011;29823;47.404;8.566;2024-03-02T10:27:06;12.20;;;8.25;;
39242;SDS011;29823;47.404;8.566;2024-03-02T10:29:38;13.07;;;9.68;;
39242;SDS011;29823;47.404;8.566;2024-03-02T10:32:11;11.88;;;8.88;;
39242;SDS011;29823;47.404;8.566;2024-03-02T10:37:06;11.38;;;8.45;;
39242;SDS011;29823;47.404;8.566;2024-03-02T10:39:34;11.80;;;8.52;;
39242;SDS011;29823;47.404;8.566;2024-03-02T10:42:03;11.35;;;8.52;;
39242;SDS011;29823;47.404;8.566;2024-03-02T10:44:31;9.77;;;7.35;;
39242;SDS011;29823;47.404;8.566;2024-03-02T10:47:00;11.88;;;6.63;;
39242;SDS011;29823;47.404;8.566;2024-03-02T10:49:30;9.02;;;5.85;;
39242;SDS011;29823;47.404;8.566;2024-03-02T10:51:58;24.80;;;13.95;;
39242;SDS011;29823;47.404;8.566;2024-03-02T10:54:26;8.48;;;6.32;;
39242;SDS011;29823;47.404;8.566;2024-03-02T10:56:56;9.95;;;6.07;;
39242;SDS011;29823;47.404;8.566;2024-03-02T10:59:29;8.90;;;6.50;;
39242;SDS011;29823;47.404;8.566;2024-03-02T11:02:00;8.35;;;6.47;;
39242;SDS011;29823;47.404;8.566;2024-03-02T11:04:33;6.40;;;5.32;;
39242;SDS011;29823;47.404;8.566;2024-03-02T11:07:02;8.02;;;6.07;;
39242;SDS011;29823;47.404;8.566;2024-03-02T11:09:32;8.07;;;5.40;;
39242;SDS011;29823;47.404;8.566;2024-03-02T11:12:02;6.85;;;5.50;;
39242;SDS011;29823;47.404;8.566;2024-03-02T11:14:30;7.10;;;5.40;;
39242;SDS011;29823;47.404;8.566;2024-03-02T11:17:00;6.38;;;5.00;;
39242;SDS011;29823;47.404;8.566;2024-03-02T11:19:28;6.85;;;4.90;;
39242;SDS011;29823;47.404;8.566;2024-03-02T11:21:57;7.00;;;5.40;;
39242;SDS011;29823;47.404;8.566;2024-03-02T11:24:29;6.57;;;5.15;;
39242;SDS011;29823;47.404;8.566;2024-03-02T11:27:04;6.95;;;4.95;;
39242;SDS011;29823;47.404;8.566;2024-03-02T11:29:44;7.63;;;5.30;;
39242;SDS011;29823;47.404;8.566;2024-03-02T11:32:14;7.65;;;5.47;;
39242;SDS011;29823;47.404;8.566;2024-03-02T11:34:44;8.32;;;6.35;;
39242;SDS011;29823;47.404;8.566;2024-03-02T11:37:14;8.10;;;5.32;;
39242;SDS011;29823;47.404;8.566;2024-03-02T11:39:43;7.50;;;5.53;;
39242;SDS011;29823;47.404;8.566;2024-03-02T11:42:14;6.63;;;5.30;;
39242;SDS011;29823;47.404;8.566;2024-03-02T11:44:43;7.57;;;5.32;;
39242;SDS011;29823;47.404;8.566;2024-03-02T11:47:11;7.40;;;5.35;;
39242;SDS011;29823;47.404;8.566;2024-03-02T11:49:42;5.73;;;4.80;;
39242;SDS011;29823;47.404;8.566;2024-03-02T11:52:12;6.15;;;4.30;;
39242;SDS011;29823;47.404;8.566;2024-03-02T11:54:41;10.43;;;5.00;;
39242;SDS011;29823;47.404;8.566;2024-03-02T11:57:13;6.20;;;4.90;;
39242;SDS011;29823;47.404;8.566;2024-03-02T11:59:41;9.38;;;5.25;;
39242;SDS011;29823;47.404;8.566;2024-03-02T12:02:14;5.78;;;4.45;;
39242;SDS011;29823;47.404;8.566;2024-03-02T12:04:42;4.03;;;3.20;;
39242;SDS011;29823;47.404;8.566;2024-03-02T12:07:11;3.30;;;2.80;;
39242;SDS011;29823;47.404;8.566;2024-03-02T12:09:39;5.32;;;3.80;;
39242;SDS011;29823;47.404;8.566;2024-03-02T12:12:08;5.93;;;3.67;;
39242;SDS011;29823;47.404;8.566;2024-03-02T12:14:37;4.43;;;3.60;;
39242;SDS011;29823;47.404;8.566;2024-03-02T12:17:05;4.22;;;3.47;;
39242;SDS011;29823;47.404;8.566;2024-03-02T12:19:33;3.70;;;3.05;;
39242;SDS011;29823;47.404;8.566;2024-03-02T12:22:02;3.03;;;2.50;;
39242;SDS011;29823;47.404;8.566;2024-03-02T12:24:32;4.75;;;2.90;;
39242;SDS011;29823;47.404;8.566;2024-03-02T12:27:00;2.85;;;2.55;;
39242;SDS011;29823;47.404;8.566;2024-03-02T12:29:29;3.95;;;3.20;;
39242;SDS011;29823;47.404;8.566;2024-03-02T12:31:57;4.13;;;2.60;;
39242;SDS011;29823;47.404;8.566;2024-03-02T12:34:25;5.40;;;3.05;;
39242;SDS011;29823;47.404;8.566;2024-03-02T12:36:53;2.97;;;2.20;;
39242;SDS011;29823;47.404;8.566;2024-03-02T12:39:21;5.05;;;2.42;;
39242;SDS011;29823;47.404;8.566;2024-03-02T12:41:49;3.47;;;2.40;;
39242;SDS011;29823;47.404;8.566;2024-03-02T12:44:17;2.38;;;2.17;;
39242;SDS011;29823;47.404;8.566;2024-03-02T12:46:47;2.65;;;2.20;;
39242;SDS011;29823;47.404;8.566;2024-03-02T12:49:15;3.05;;;2.10;;
39242;SDS011;29823;47.404;8.566;2024-03-02T12:51:43;3.05;;;1.90;;
39242;SDS011;29823;47.404;8.566;2024-03-02T12:54:13;4.65;;;2.25;;
39242;SDS011;29823;47.404;8.566;2024-03-02T12:56:41;3.28;;;2.47;;
39242;SDS011;29823;47.404;8.566;2024-03-02T12:59:17;8.15;;;2.40;;
39242;SDS011;29823;47.404;8.566;2024-03-02T13:01:51;3.30;;;2.38;;
39242;SDS011;29823;47.404;8.566;2024-03-02T13:04:21;3.10;;;2.58;;
39242;SDS011;29823;47.404;8.566;2024-03-02T13:06:49;6.10;;;3.00;;
39242;SDS011;29823;47.404;8.566;2024-03-02T13:09:17;3.90;;;3.03;;
39242;SDS011;29823;47.404;8.566;2024-03-02T13:11:45;13.20;;;6.20;;
39242;SDS011;29823;47.404;8.566;2024-03-02T13:14:13;9.52;;;4.93;;
39242;SDS011;29823;47.404;8.566;2024-03-02T13:16:41;6.63;;;4.65;;
39242;SDS011;29823;47.404;8.566;2024-03-02T13:19:14;5.05;;;3.55;;
39242;SDS011;29823;47.404;8.566;2024-03-02T13:21:42;5.35;;;3.72;;
39242;SDS011;29823;47.404;8.566;2024-03-02T13:24:10;6.35;;;4.00;;
39242;SDS011;29823;47.404;8.566;2024-03-02T13:26:37;4.38;;;3.92;;
39242;SDS011;29823;47.404;8.566;2024-03-02T13:29:06;5.28;;;3.80;;
39242;SDS011;29823;47.404;8.566;2024-03-02T13:31:36;4.45;;;2.95;;
39242;SDS011;29823;47.404;8.566;2024-03-02T13:34:03;5.70;;;3.72;;
39242;SDS011;29823;47.404;8.566;2024-03-02T13:36:33;6.20;;;3.80;;
39242;SDS011;29823;47.404;8.566;2024-03-02T13:39:00;5.35;;;3.55;;
39242;SDS011;29823;47.404;8.566;2024-03-02T13:41:29;5.10;;;3.45;;
39242;SDS011;29823;47.404;8.566;2024-03-02T13:43:56;5.22;;;3.53;;
39242;SDS011;29823;47.404;8.566;2024-03-02T13:46:27;5.47;;;3.92;;
39242;SDS011;29823;47.404;8.566;2024-03-02T13:48:55;4.93;;;3.53;;
39242;SDS011;29823;47.404;8.566;2024-03-02T13:51:23;7.22;;;3.63;;
39242;SDS011;29823;47.404;8.566;2024-03-02T13:53:53;5.80;;;3.65;;
39242;SDS011;29823;47.404;8.566;2024-03-02T13:56:20;5.70;;;3.60;;
39242;SDS011;29823;47.404;8.566;2024-03-02T13:58:48;5.97;;;3.50;;
39242;SDS011;29823;47.404;8.566;2024-03-02T14:01:16;8.40;;;3.97;;
39242;SDS011;29823;47.404;8.566;2024-03-02T14:03:44;7.43;;;4.80;;
39242;SDS011;29823;47.404;8.566;2024-03-02T14:06:12;10.25;;;5.28;;
39242;SDS011;29823;47.404;8.566;2024-03-02T14:08:40;7.45;;;3.72;;
39242;SDS011;29823;47.404;8.566;2024-03-02T14:11:13;11.43;;;6.68;;
39242;SDS011;29823;47.404;8.566;2024-03-02T14:13:41;7.57;;;4.18;;
39242;SDS011;29823;47.404;8.566;2024-03-02T14:16:13;6.70;;;4.13;;
39242;SDS011;29823;47.404;8.566;2024-03-02T14:18:41;6.57;;;4.05;;
39242;SDS011;29823;47.404;8.566;2024-03-02T14:21:09;6.32;;;3.63;;
39242;SDS011;29823;47.404;8.566;2024-03-02T14:23:36;5.63;;;3.20;;
39242;SDS011;29823;47.404;8.566;2024-03-02T14:26:04;6.18;;;3.67;;
39242;SDS011;29823;47.404;8.566;2024-03-02T14:28:33;6.25;;;3.45;;
39242;SDS011;29823;47.404;8.566;2024-03-02T14:31:16;9.20;;;3.47;;
39242;SDS011;29823;47.404;8.566;2024-03-02T14:33:44;3.75;;;2.65;;
39242;SDS011;29823;47.404;8.566;2024-03-02T14:36:12;6.93;;;2.95;;
39242;SDS011;29823;47.404;8.566;2024-03-02T14:38:40;4.38;;;2.53;;
39242;SDS011;29823;47.404;8.566;2024-03-02T14:41:07;5.72;;;2.80;;